createdAt,value
2018-02-09T00:02:19.707Z,68.22
2018-02-09T00:04:48.096Z,74.78
2018-02-09T00:07:16.518Z,77.47
2018-02-09T00:09:44.205Z,78.97
2018-02-09T00:12:11.825Z,67.93
2018-02-09T00:14:39.486Z,69.90
2018-02-09T00:17:07.100Z,71.30
2018-02-09T00:19:34.713Z,70.30
2018-02-09T00:22:02.365Z,76.90
2018-02-09T00:24:29.981Z,71.62
2018-02-09T00:26:57.593Z,79.75
2018-02-09T00:29:26.016Z,79.95
2018-02-09T00:31:53.632Z,75.00
2018-02-09T00:34:21.257Z,78.40
2018-02-09T00:36:48.909Z,80.65
2018-02-09T00:39:17.289Z,75.72
2018-02-09T00:41:45.684Z,74.37
2018-02-09T00:44:14.104Z,78.53
2018-02-09T00:46:41.760Z,77.18
2018-02-09T00:49:09.379Z,72.55
2018-02-09T00:51:37.040Z,71.68
2018-02-09T00:54:04.648Z,77.28
2018-02-09T00:56:32.269Z,73.03
2018-02-09T00:58:59.920Z,74.03
2018-02-09T01:01:28.305Z,67.03
2018-02-09T01:03:56.684Z,71.95
2018-02-09T01:06:24.340Z,65.32
2018-02-09T01:08:51.961Z,80.15
2018-02-09T01:11:19.585Z,71.07
2018-02-09T01:13:47.241Z,80.90
2018-02-09T01:16:14.867Z,69.47
2018-02-09T01:18:43.249Z,71.57
2018-02-09T01:21:10.896Z,67.80
2018-02-09T01:23:38.504Z,71.85
2018-02-09T01:26:06.125Z,75.72
2018-02-09T01:28:33.773Z,71.10
2018-02-09T01:31:01.388Z,76.57
2018-02-09T01:33:28.999Z,79.40
2018-02-09T01:35:57.421Z,70.47
2018-02-09T01:38:25.037Z,64.90
2018-02-09T01:40:52.663Z,79.07
2018-02-09T01:43:20.312Z,73.75
2018-02-09T01:45:48.696Z,73.72
2018-02-09T01:48:16.313Z,67.07
2018-02-09T01:50:43.968Z,71.28
2018-02-09T01:53:12.349Z,75.80
2018-02-09T01:55:40.724Z,75.10
2018-02-09T01:58:08.376Z,78.90
2018-02-09T02:00:35.996Z,71.90
2018-02-09T02:03:04.385Z,72.87
2018-02-09T02:05:32.807Z,85.07
2018-02-09T02:08:00.416Z,74.72
2018-02-09T02:10:28.029Z,71.60
2018-02-09T02:12:56.461Z,82.05
2018-02-09T02:15:24.076Z,85.68
2018-02-09T02:17:51.691Z,65.03
2018-02-09T02:20:19.339Z,76.15
2018-02-09T02:22:48.499Z,74.53
2018-02-09T02:25:16.118Z,80.72
2018-02-09T02:27:44.536Z,80.47
2018-02-09T02:30:12.146Z,72.80
2018-02-09T02:32:39.768Z,80.40
2018-02-09T02:35:08.192Z,78.22
2018-02-09T02:37:35.809Z,76.80
2018-02-09T02:40:03.463Z,74.12
2018-02-09T02:42:31.100Z,76.72
2018-02-09T02:44:58.726Z,71.65
2018-02-09T02:47:26.344Z,73.07
2018-02-09T02:49:53.997Z,75.87
2018-02-09T02:52:22.384Z,77.62
2018-02-09T02:54:50.832Z,74.93
2018-02-09T02:57:18.490Z,75.07
2018-02-09T02:59:46.181Z,71.12
2018-02-09T03:02:13.812Z,68.97
2018-02-09T03:04:42.236Z,67.97
2018-02-09T03:07:10.297Z,71.03
2018-02-09T03:09:37.912Z,67.87
2018-02-09T03:12:05.561Z,68.87
2018-02-09T03:14:33.177Z,71.97
2018-02-09T03:17:00.801Z,72.40
2018-02-09T03:19:28.448Z,73.68
2018-02-09T03:21:56.829Z,73.00
2018-02-09T03:24:24.444Z,75.90
2018-02-09T03:26:52.089Z,76.65
2018-02-09T03:29:20.475Z,77.55
2018-02-09T03:31:48.864Z,74.37
2018-02-09T03:34:17.289Z,70.55
2018-02-09T03:36:44.912Z,66.07
2018-02-09T03:39:12.538Z,70.70
2018-02-09T03:41:40.256Z,77.78
2018-02-09T03:44:07.885Z,71.70
2018-02-09T03:46:35.509Z,80.10
2018-02-09T03:49:03.164Z,76.95
2018-02-09T03:51:30.784Z,69.50
2018-02-09T03:53:59.169Z,80.57
2018-02-09T03:56:27.590Z,70.90
2018-02-09T03:58:55.294Z,81.00
2018-02-09T04:01:22.920Z,73.25
2018-02-09T04:03:51.344Z,78.82
2018-02-09T04:06:18.957Z,72.82
2018-02-09T04:08:47.456Z,67.28
2018-02-09T04:11:15.108Z,74.80
2018-02-09T04:13:42.731Z,82.37
2018-02-09T04:16:11.117Z,75.43
2018-02-09T04:18:39.540Z,77.90
2018-02-09T04:21:07.239Z,81.85
2018-02-09T04:23:34.861Z,80.82
2018-02-09T04:26:03.297Z,78.60
2018-02-09T04:28:30.912Z,73.10
2018-02-09T04:30:58.529Z,75.80
2018-02-09T04:33:26.189Z,64.62
2018-02-09T04:35:53.904Z,81.90
2018-02-09T04:38:21.512Z,76.20
2018-02-09T04:40:49.169Z,81.32
2018-02-09T04:43:16.784Z,82.32
2018-02-09T04:45:44.415Z,84.10
2018-02-09T04:48:12.065Z,82.93
2018-02-09T04:50:39.677Z,81.05
2018-02-09T04:53:07.385Z,84.95
2018-02-09T04:55:35.043Z,84.50
2018-02-09T04:58:03.420Z,76.57
2018-02-09T05:00:31.037Z,80.28
2018-02-09T05:02:58.689Z,82.18
2018-02-09T05:05:27.074Z,76.53
2018-02-09T05:07:55.461Z,78.10
2018-02-09T05:10:23.881Z,84.03
2018-02-09T05:12:51.500Z,72.00
2018-02-09T05:15:19.126Z,76.62
2018-02-09T05:17:46.786Z,89.35
2018-02-09T05:20:15.226Z,78.70
2018-02-09T05:22:42.841Z,89.70
2018-02-09T05:25:11.260Z,82.45
2018-02-09T05:27:38.873Z,77.35
2018-02-09T05:30:06.485Z,85.35
2018-02-09T05:32:34.146Z,84.68
2018-02-09T05:35:01.777Z,77.53
2018-02-09T05:37:29.393Z,80.40
2018-02-09T05:39:57.200Z,91.55
2018-02-09T05:42:24.823Z,84.32
2018-02-09T05:44:52.445Z,80.00
2018-02-09T05:47:20.852Z,74.20
2018-02-09T05:49:48.464Z,90.65
2018-02-09T05:52:16.072Z,86.68
2018-02-09T05:54:44.493Z,89.28
2018-02-09T05:57:12.104Z,85.68
2018-02-09T05:59:39.735Z,87.10
2018-02-09T06:02:07.385Z,96.82
2018-02-09T06:04:35.805Z,91.95
2018-02-09T06:07:03.429Z,80.00
2018-02-09T06:09:31.093Z,76.35
2018-02-09T06:11:58.717Z,99.05
2018-02-09T06:14:26.340Z,86.53
2018-02-09T06:16:54.096Z,89.60
2018-02-09T06:19:21.720Z,83.87
2018-02-09T06:21:49.331Z,76.68
2018-02-09T06:24:16.988Z,90.12
2018-02-09T06:26:44.628Z,89.22
2018-02-09T06:29:12.236Z,98.28
2018-02-09T06:31:40.657Z,92.05
2018-02-09T06:34:08.268Z,86.22
2018-02-09T06:36:35.893Z,93.65
2018-02-09T06:39:03.626Z,82.93
2018-02-09T06:41:31.245Z,105.82
2018-02-09T06:43:58.861Z,98.35
2018-02-09T06:46:26.513Z,104.00
2018-02-09T06:48:54.132Z,85.18
2018-02-09T06:51:22.528Z,84.93
2018-02-09T06:53:51.640Z,90.40
2018-02-09T06:56:20.291Z,85.40
2018-02-09T06:58:47.904Z,85.10
2018-02-09T07:01:16.321Z,79.87
2018-02-09T07:03:43.942Z,78.10
2018-02-09T07:06:11.552Z,84.62
2018-02-09T07:08:39.969Z,99.03
2018-02-09T07:11:07.585Z,78.87
2018-02-09T07:13:35.208Z,86.15
2018-02-09T07:16:02.865Z,83.60
2018-02-09T07:18:31.252Z,76.22
2018-02-09T07:20:59.633Z,90.95
2018-02-09T07:23:27.481Z,83.70
2018-02-09T07:25:55.176Z,87.32
2018-02-09T07:28:22.790Z,98.62
2018-02-09T07:30:53.167Z,88.55
2018-02-09T07:33:29.417Z,80.68
2018-02-09T07:35:57.380Z,95.40
2018-02-09T07:38:27.052Z,92.62
2018-02-09T07:40:54.669Z,74.50
2018-02-09T07:43:23.093Z,82.43
2018-02-09T07:45:51.506Z,88.65
2018-02-09T07:48:19.739Z,86.00
2018-02-09T07:50:48.161Z,83.72
2018-02-09T07:53:15.772Z,75.60
2018-02-09T07:55:43.540Z,80.15
2018-02-09T07:58:12.219Z,89.47
2018-02-09T08:00:39.866Z,80.75
2018-02-09T08:03:07.506Z,82.32
2018-02-09T08:05:35.165Z,74.15
2018-02-09T08:08:02.781Z,76.95
2018-02-09T08:10:31.173Z,74.75
2018-02-09T08:12:59.618Z,72.60
2018-02-09T08:15:27.238Z,82.50
2018-02-09T08:17:55.625Z,71.03
2018-02-09T08:20:24.045Z,68.20
2018-02-09T08:22:51.656Z,66.00
2018-02-09T08:25:19.272Z,70.53
2018-02-09T08:27:47.693Z,59.05
2018-02-09T08:30:15.316Z,65.37
2018-02-09T08:32:42.937Z,69.10
2018-02-09T08:35:10.603Z,71.65
2018-02-09T08:37:38.213Z,63.90
2018-02-09T08:40:05.822Z,63.28
2018-02-09T08:42:33.469Z,62.13
2018-02-09T08:45:01.081Z,61.75
2018-02-09T08:47:29.459Z,59.58
2018-02-09T08:49:57.105Z,60.50
2018-02-09T08:52:24.713Z,59.10
2018-02-09T08:54:53.093Z,57.13
2018-02-09T08:57:20.746Z,57.22
2018-02-09T08:59:48.357Z,58.97
2018-02-09T09:02:16.737Z,59.75
2018-02-09T09:04:44.385Z,55.88
2018-02-09T09:07:12.001Z,55.75
2018-02-09T09:09:41.551Z,65.12
2018-02-09T09:12:09.192Z,58.63
2018-02-09T09:14:37.581Z,54.70
2018-02-09T09:17:05.958Z,58.25
2018-02-09T09:19:34.742Z,51.80
2018-02-09T09:22:02.354Z,55.78
2018-02-09T09:24:30.740Z,57.13
2018-02-09T09:27:00.655Z,58.05
2018-02-09T09:29:28.282Z,56.05
2018-02-09T09:31:55.897Z,54.78
2018-02-09T09:34:23.546Z,59.00
2018-02-09T09:36:51.156Z,53.85
2018-02-09T09:39:19.544Z,49.80
2018-02-09T09:41:47.233Z,52.72
2018-02-09T09:44:16.434Z,52.40
2018-02-09T09:46:44.049Z,48.45
2018-02-09T09:49:11.701Z,45.83
2018-02-09T09:51:40.160Z,53.03
2018-02-09T09:54:07.799Z,53.10
2018-02-09T09:56:36.207Z,58.92
2018-02-09T09:59:04.025Z,50.88
2018-02-09T10:01:32.418Z,51.17
2018-02-09T10:04:00.837Z,55.47
2018-02-09T10:06:29.565Z,52.58
2018-02-09T10:08:57.201Z,54.45
2018-02-09T10:11:24.871Z,51.17
2018-02-09T10:13:53.257Z,49.72
2018-02-09T10:16:21.634Z,51.88
2018-02-09T10:18:50.709Z,50.95
2018-02-09T10:21:18.377Z,52.67
2018-02-09T10:23:46.003Z,49.40
2018-02-09T10:26:14.431Z,52.75
2018-02-09T10:28:42.049Z,54.35
2018-02-09T10:31:10.817Z,52.60
2018-02-09T10:33:38.465Z,56.92
2018-02-09T10:36:06.077Z,51.78
2018-02-09T10:38:33.744Z,50.85
2018-02-09T10:41:01.402Z,52.67
2018-02-09T10:43:29.682Z,53.00
2018-02-09T10:45:57.322Z,55.33
2018-02-09T10:48:24.992Z,47.67
2018-02-09T10:50:53.383Z,48.00
2018-02-09T10:53:21.755Z,45.20
2018-02-09T10:55:49.564Z,49.78
2018-02-09T10:58:17.946Z,49.58
2018-02-09T11:00:51.257Z,47.55
2018-02-09T11:03:19.638Z,51.30
2018-02-09T11:05:47.261Z,49.80
2018-02-09T11:08:14.910Z,48.53
2018-02-09T11:10:47.632Z,49.88
2018-02-09T11:13:16.080Z,43.05
2018-02-09T11:15:43.700Z,53.45
2018-02-09T11:18:11.318Z,47.17
2018-02-09T11:20:40.123Z,51.03
2018-02-09T11:23:08.533Z,50.30
2018-02-09T11:25:36.934Z,51.83
2018-02-09T11:28:04.597Z,46.22
2018-02-09T11:30:32.989Z,49.53
2018-02-09T11:33:01.369Z,46.50
2018-02-09T11:35:29.968Z,44.20
2018-02-09T11:37:58.350Z,43.45
2018-02-09T11:40:25.981Z,41.22
2018-02-09T11:42:53.674Z,44.97
2018-02-09T11:45:21.284Z,41.37
2018-02-09T11:47:48.905Z,44.67
2018-02-09T11:50:16.561Z,46.17
2018-02-09T11:52:44.269Z,48.22
2018-02-09T11:55:11.856Z,45.63
2018-02-09T11:57:44.573Z,45.58
2018-02-09T12:00:12.198Z,37.78
2018-02-09T12:02:39.817Z,43.47
2018-02-09T12:05:07.513Z,45.40
2018-02-09T12:07:35.905Z,44.85
2018-02-09T12:10:06.291Z,47.47
2018-02-09T12:12:39.016Z,37.40
2018-02-09T12:15:06.668Z,45.20
2018-02-09T12:17:34.300Z,45.72
2018-02-09T12:20:07.902Z,43.33
2018-02-09T12:22:36.298Z,46.03
2018-02-09T12:25:03.910Z,42.67
2018-02-09T12:27:31.575Z,39.92
2018-02-09T12:29:59.225Z,48.45
2018-02-09T12:32:26.841Z,47.25
2018-02-09T12:34:56.662Z,41.33
2018-02-09T12:37:27.138Z,43.58
2018-02-09T12:39:54.802Z,44.53
2018-02-09T12:42:22.446Z,54.22
2018-02-09T12:44:50.084Z,43.55
2018-02-09T12:47:17.758Z,46.88
2018-02-09T12:49:45.385Z,48.65
2018-02-09T12:52:13.025Z,52.45
2018-02-09T12:54:42.981Z,49.55
2018-02-09T12:57:12.881Z,48.50
2018-02-09T12:59:40.557Z,51.55
2018-02-09T13:02:08.183Z,46.90
2018-02-09T13:04:35.810Z,50.22
2018-02-09T13:07:03.482Z,47.65
2018-02-09T13:09:36.005Z,47.80
2018-02-09T13:12:05.200Z,50.50
2018-02-09T13:14:44.835Z,46.58
2018-02-09T13:17:12.498Z,44.08
2018-02-09T13:19:40.197Z,45.10
2018-02-09T13:22:07.839Z,43.08
2018-02-09T13:24:35.503Z,44.30
2018-02-09T13:27:03.890Z,46.65
2018-02-09T13:29:32.274Z,47.53
2018-02-09T13:31:59.930Z,53.47
2018-02-09T13:34:27.561Z,46.95
2018-02-09T13:40:04.136Z,52.03
2018-02-09T13:42:31.794Z,40.90
2018-02-09T13:44:59.480Z,47.42
2018-02-09T13:47:27.112Z,44.10
2018-02-09T13:49:54.768Z,47.15
2018-02-09T13:52:22.430Z,48.67
2018-02-09T13:54:50.811Z,44.75
2018-02-09T13:57:18.470Z,44.95
2018-02-09T13:59:46.092Z,45.97
2018-02-09T14:02:13.708Z,53.33
2018-02-09T14:04:41.371Z,49.17
2018-02-09T14:07:08.984Z,50.40
2018-02-09T14:09:37.423Z,52.97
2018-02-09T14:12:05.050Z,51.83
2018-02-09T14:14:33.473Z,48.45
2018-02-09T14:17:01.116Z,45.63
2018-02-09T14:19:29.538Z,50.35
2018-02-09T14:21:57.166Z,47.95
2018-02-09T14:24:24.781Z,49.47
2018-02-09T14:26:52.432Z,51.65
2018-02-09T14:29:20.818Z,53.45
2018-02-09T14:31:49.220Z,48.53
2018-02-09T14:34:17.656Z,53.00
2018-02-09T14:36:45.274Z,52.13
2018-02-09T14:39:12.893Z,56.65
2018-02-09T14:41:40.562Z,54.83
2018-02-09T14:44:08.270Z,51.22
2018-02-09T14:46:35.903Z,55.67
2018-02-09T14:49:03.587Z,59.63
2018-02-09T14:51:37.029Z,46.22
2018-02-09T14:54:04.705Z,48.35
2018-02-09T14:56:32.874Z,54.45
2018-02-09T14:59:00.503Z,53.30
2018-02-09T15:01:28.933Z,62.85
2018-02-09T15:03:56.557Z,52.40
2018-02-09T15:06:24.957Z,50.17
2018-02-09T15:08:53.376Z,58.85
2018-02-09T15:11:21.041Z,58.85
2018-02-09T15:13:48.628Z,46.83
2018-02-09T15:16:16.281Z,47.58
2018-02-09T15:18:44.662Z,56.25
2018-02-09T15:21:12.277Z,56.22
2018-02-09T15:23:39.928Z,66.65
2018-02-09T15:26:09.424Z,65.32
2018-02-09T15:28:37.058Z,65.57
2018-02-09T15:31:04.711Z,66.12
2018-02-09T15:33:32.323Z,66.75
2018-02-09T15:36:00.125Z,63.08
2018-02-09T15:38:27.804Z,69.62
2018-02-09T15:40:56.241Z,64.43
2018-02-09T15:43:23.872Z,73.50
2018-02-09T15:45:51.553Z,67.15
2018-02-09T15:48:19.941Z,77.40
2018-02-09T15:50:47.558Z,75.18
2018-02-09T15:53:15.392Z,70.28
2018-02-09T15:55:43.296Z,71.72
2018-02-09T15:58:10.926Z,70.93
2018-02-09T16:00:38.630Z,70.90
2018-02-09T16:03:06.305Z,64.30
2018-02-09T16:05:34.697Z,70.22
2018-02-09T16:08:03.129Z,75.22
2018-02-09T16:10:30.744Z,68.05
2018-02-09T16:12:58.465Z,67.90
2018-02-09T16:15:26.306Z,67.57
2018-02-09T16:17:54.193Z,67.53
2018-02-09T16:20:23.343Z,67.12
2018-02-09T16:22:50.997Z,75.28
2018-02-09T16:25:18.625Z,74.03
2018-02-09T16:27:46.238Z,70.35
2018-02-09T16:30:14.657Z,66.03
2018-02-09T16:32:42.497Z,74.65
2018-02-09T16:35:10.976Z,74.45
2018-02-09T16:37:38.625Z,74.40
2018-02-09T16:40:06.312Z,74.70
2018-02-09T16:42:34.040Z,67.40
2018-02-09T16:45:03.161Z,76.65
2018-02-09T16:47:30.778Z,74.85
2018-02-09T16:49:58.396Z,71.72
2018-02-09T16:52:26.061Z,69.95
2018-02-09T16:54:54.453Z,80.25
2018-02-09T16:57:25.126Z,65.90
2018-02-09T16:59:52.786Z,84.13
2018-02-09T17:02:21.011Z,74.05
2018-02-09T17:04:48.633Z,76.28
2018-02-09T17:07:17.125Z,76.45
2018-02-09T17:09:46.857Z,79.68
2018-02-09T17:12:14.712Z,71.47
2018-02-09T17:14:42.373Z,70.78
2018-02-09T17:17:10.191Z,81.25
2018-02-09T17:19:39.918Z,72.82
2018-02-09T17:22:10.020Z,73.30
2018-02-09T17:24:37.893Z,78.55
2018-02-09T17:27:05.695Z,75.07
2018-02-09T17:29:33.789Z,72.45
2018-02-09T17:32:01.516Z,76.35
2018-02-09T17:34:29.155Z,70.30
2018-02-09T17:36:56.797Z,69.57
2018-02-09T17:39:24.833Z,73.10
2018-02-09T17:41:52.510Z,77.00
2018-02-09T17:44:20.165Z,74.72
2018-02-09T17:46:48.573Z,82.97
2018-02-09T17:49:16.230Z,70.93
2018-02-09T17:51:43.893Z,90.18
2018-02-09T17:54:11.908Z,85.65
2018-02-09T17:56:39.619Z,92.35
2018-02-09T17:59:07.318Z,65.70
2018-02-09T18:01:36.624Z,75.80
2018-02-09T18:04:04.254Z,74.82
2018-02-09T18:06:32.222Z,88.28
2018-02-09T18:09:00.610Z,69.97
2018-02-09T18:11:29.046Z,72.78
2018-02-09T18:13:56.777Z,65.57
2018-02-09T18:16:24.389Z,64.65
2018-02-09T18:18:52.050Z,65.07
2018-02-09T18:21:19.700Z,67.43
2018-02-09T18:23:47.356Z,69.80
2018-02-09T18:26:15.320Z,73.55
2018-02-09T18:28:43.223Z,70.35
2018-02-09T18:31:10.945Z,70.45
2018-02-09T18:33:39.336Z,72.53
2018-02-09T18:36:06.993Z,75.18
2018-02-09T18:38:34.661Z,76.45
2018-02-09T18:41:05.838Z,65.62
2018-02-09T18:43:33.599Z,72.47
2018-02-09T18:46:01.379Z,62.92
2018-02-09T18:48:30.602Z,70.80
2018-02-09T18:50:58.269Z,67.78
2018-02-09T18:53:26.809Z,66.55
2018-02-09T18:55:57.517Z,75.82
2018-02-09T18:58:25.431Z,72.68
2018-02-09T19:00:53.194Z,82.07
2018-02-09T19:03:21.867Z,79.10
2018-02-09T19:05:49.497Z,78.43
2018-02-09T19:08:18.108Z,74.87
2018-02-09T19:10:45.725Z,83.35
2018-02-09T19:13:13.956Z,73.80
2018-02-09T19:15:41.846Z,78.85
2018-02-09T19:18:09.590Z,70.40
2018-02-09T19:20:38.746Z,72.90
2018-02-09T19:23:07.337Z,68.75
2018-02-09T19:25:35.304Z,65.75
2018-02-09T19:28:04.172Z,76.45
2018-02-09T19:30:31.826Z,67.55
2018-02-09T19:32:59.499Z,69.93
2018-02-09T19:35:27.126Z,60.63
2018-02-09T19:37:54.758Z,73.82
2018-02-09T19:40:22.402Z,87.55
2018-02-09T19:42:50.786Z,75.65
2018-02-09T19:45:18.498Z,63.97
2018-02-09T19:47:48.639Z,70.78
2018-02-09T19:50:16.254Z,65.07
2018-02-09T19:52:47.991Z,71.18
2018-02-09T19:55:17.858Z,70.37
2018-02-09T19:57:47.536Z,81.50
2018-02-09T20:00:15.997Z,72.68
2018-02-09T20:02:44.630Z,67.32
2018-02-09T20:05:12.388Z,68.80
2018-02-09T20:07:46.277Z,65.18
2018-02-09T20:10:14.114Z,65.40
2018-02-09T20:12:41.840Z,71.10
2018-02-09T20:15:09.521Z,68.87
2018-02-09T20:17:37.169Z,67.50
2018-02-09T20:20:05.565Z,70.37
2018-02-09T20:22:35.649Z,63.60
2018-02-09T20:25:04.195Z,69.18
2018-02-09T20:27:31.816Z,67.25
2018-02-09T20:29:59.504Z,93.75
2018-02-09T20:32:27.141Z,76.47
2018-02-09T20:34:55.854Z,71.22
2018-02-09T20:37:23.575Z,69.03
2018-02-09T20:39:54.128Z,77.40
2018-02-09T20:42:21.740Z,81.82
2018-02-09T20:44:49.634Z,82.50
2018-02-09T20:47:17.277Z,74.28
2018-02-09T20:49:44.936Z,71.62
2018-02-09T20:52:12.588Z,71.80
2018-02-09T20:54:41.016Z,78.50
2018-02-09T20:57:08.649Z,72.07
2018-02-09T20:59:36.297Z,79.05
2018-02-09T21:02:03.915Z,71.68
2018-02-09T21:04:31.572Z,77.30
2018-02-09T21:06:59.226Z,74.75
2018-02-09T21:09:29.768Z,78.20
2018-02-09T21:11:57.405Z,73.12
2018-02-09T21:14:25.049Z,82.90
2018-02-09T21:16:52.714Z,73.60
2018-02-09T21:19:20.874Z,80.90
2018-02-09T21:21:48.486Z,80.95
2018-02-09T21:24:16.137Z,81.25
2018-02-09T21:26:44.521Z,74.00
2018-02-09T21:29:12.952Z,80.87
2018-02-09T21:31:40.573Z,71.93
2018-02-09T21:34:08.220Z,78.78
2018-02-09T21:36:35.861Z,84.00
2018-02-09T21:39:03.476Z,88.68
2018-02-09T21:41:31.130Z,81.70
2018-02-09T21:43:58.761Z,70.35
2018-02-09T21:46:27.165Z,74.15
2018-02-09T21:48:54.818Z,75.50
2018-02-09T21:51:23.306Z,72.50
2018-02-09T21:53:51.751Z,68.10
2018-02-09T21:56:19.525Z,93.10
2018-02-09T21:58:47.141Z,70.28
2018-02-09T22:01:14.789Z,76.47
2018-02-09T22:03:42.409Z,85.55
2018-02-09T22:06:11.002Z,88.53
2018-02-09T22:08:38.637Z,90.00
2018-02-09T22:11:07.212Z,76.78
2018-02-09T22:13:34.845Z,79.80
2018-02-09T22:16:02.473Z,78.18
2018-02-09T22:18:30.133Z,70.95
2018-02-09T22:20:57.749Z,81.20
2018-02-09T22:23:25.373Z,89.95
2018-02-09T22:25:53.016Z,78.25
2018-02-09T22:28:21.449Z,77.30
2018-02-09T22:30:49.085Z,82.40
2018-02-09T22:33:17.473Z,65.87
2018-02-09T22:35:45.094Z,85.65
2018-02-09T22:38:12.736Z,85.45
2018-02-09T22:40:41.127Z,81.50
2018-02-09T22:43:09.692Z,85.32
2018-02-09T22:45:37.305Z,93.70
2018-02-09T22:48:04.921Z,81.90
2018-02-09T22:50:32.565Z,81.55
2018-02-09T22:53:00.180Z,93.50
2018-02-09T22:55:27.838Z,86.82
2018-02-09T22:57:55.456Z,84.18
2018-02-09T23:00:23.848Z,111.97
2018-02-09T23:02:52.253Z,82.30
2018-02-09T23:05:20.629Z,98.00
2018-02-09T23:07:51.529Z,79.37
2018-02-09T23:10:19.150Z,85.57
2018-02-09T23:12:47.529Z,97.70
2018-02-09T23:15:15.177Z,86.20
2018-02-09T23:17:42.797Z,81.85
2018-02-09T23:20:11.217Z,89.32
2018-02-09T23:22:38.863Z,77.93
2018-02-09T23:25:07.266Z,90.05
2018-02-09T23:27:34.905Z,93.12
2018-02-09T23:30:02.537Z,91.87
2018-02-09T23:32:30.189Z,99.10
2018-02-09T23:34:57.805Z,95.15
2018-02-09T23:37:25.417Z,85.97
2018-02-09T23:39:53.829Z,92.35
2018-02-09T23:42:21.449Z,91.63
2018-02-09T23:44:49.096Z,85.60
2018-02-09T23:47:16.719Z,105.60
2018-02-09T23:49:44.340Z,75.87
2018-02-09T23:52:11.990Z,102.03
2018-02-09T23:54:40.370Z,96.55
2018-02-09T23:57:08.786Z,94.55
2018-02-09T23:59:36.404Z,91.57
